sensor_id;sensor_type;location;lat;lon;timestamp;P1;durP1;ratioP1;P2;durP2;ratioP2
62711;SDS011;48772;55.586;37.730;2023-02-10T00:01:15;3.80;;;3.17;;
62711;SDS011;48772;55.586;37.730;2023-02-10T00:03:46;5.50;;;3.22;;
62711;SDS011;48772;55.586;37.730;2023-02-10T00:06:13;4.63;;;2.95;;
62711;SDS011;48772;55.586;37.730;2023-02-10T00:08:45;6.97;;;4.28;;
62711;SDS011;48772;55.586;37.730;2023-02-10T00:11:12;8.27;;;4.22;;
62711;SDS011;48772;55.586;37.730;2023-02-10T00:13:41;6.25;;;4.55;;
62711;SDS011;48772;55.586;37.730;2023-02-10T00:16:09;5.07;;;3.70;;
62711;SDS011;48772;55.586;37.730;2023-02-10T00:18:37;5.03;;;3.22;;
62711;SDS011;48772;55.586;37.730;2023-02-10T00:23:33;7.53;;;4.00;;
62711;SDS011;48772;55.586;37.730;2023-02-10T00:26:01;4.13;;;3.25;;
62711;SDS011;48772;55.586;37.730;2023-02-10T00:28:32;4.90;;;3.08;;
62711;SDS011;48772;55.586;37.730;2023-02-10T00:31:04;8.45;;;3.85;;
62711;SDS011;48772;55.586;37.730;2023-02-10T00:33:33;4.32;;;3.28;;
62711;SDS011;48772;55.586;37.730;2023-02-10T00:36:02;5.43;;;3.58;;
62711;SDS011;48772;55.586;37.730;2023-02-10T00:38:33;5.35;;;2.92;;
62711;SDS011;48772;55.586;37.730;2023-02-10T00:41:07;5.00;;;3.28;;
62711;SDS011;48772;55.586;37.730;2023-02-10T00:43:35;4.43;;;3.25;;
62711;SDS011;48772;55.586;37.730;2023-02-10T00:46:04;9.73;;;4.18;;
62711;SDS011;48772;55.586;37.730;2023-02-10T00:48:31;5.30;;;3.33;;
62711;SDS011;48772;55.586;37.730;2023-02-10T00:50:58;6.40;;;3.78;;
62711;SDS011;48772;55.586;37.730;2023-02-10T00:53:25;7.45;;;3.75;;
62711;SDS011;48772;55.586;37.730;2023-02-10T00:55:51;3.78;;;2.97;;
62711;SDS011;48772;55.586;37.730;2023-02-10T00:58:17;4.95;;;2.97;;
62711;SDS011;48772;55.586;37.730;2023-02-10T01:00:45;6.55;;;4.20;;
62711;SDS011;48772;55.586;37.730;2023-02-10T01:03:13;6.30;;;3.45;;
62711;SDS011;48772;55.586;37.730;2023-02-10T01:05:40;5.60;;;3.10;;
62711;SDS011;48772;55.586;37.730;2023-02-10T01:08:07;7.10;;;3.83;;
62711;SDS011;48772;55.586;37.730;2023-02-10T01:10:34;3.72;;;3.00;;
62711;SDS011;48772;55.586;37.730;2023-02-10T01:13:05;4.18;;;2.88;;
62711;SDS011;48772;55.586;37.730;2023-02-10T01:15:33;5.85;;;3.50;;
62711;SDS011;48772;55.586;37.730;2023-02-10T01:17:59;5.10;;;3.13;;
62711;SDS011;48772;55.586;37.730;2023-02-10T01:20:25;5.20;;;3.20;;
62711;SDS011;48772;55.586;37.730;2023-02-10T01:22:52;6.25;;;3.78;;
62711;SDS011;48772;55.586;37.730;2023-02-10T01:25:18;7.32;;;3.75;;
62711;SDS011;48772;55.586;37.730;2023-02-10T01:27:44;4.05;;;2.72;;
62711;SDS011;48772;55.586;37.730;2023-02-10T01:30:11;4.97;;;2.85;;
62711;SDS011;48772;55.586;37.730;2023-02-10T01:32:37;6.78;;;3.97;;
62711;SDS011;48772;55.586;37.730;2023-02-10T01:35:09;3.95;;;2.53;;
62711;SDS011;48772;55.586;37.730;2023-02-10T01:37:39;4.93;;;3.00;;
62711;SDS011;48772;55.586;37.730;2023-02-10T01:40:07;6.45;;;3.55;;
62711;SDS011;48772;55.586;37.730;2023-02-10T01:42:37;6.70;;;3.75;;
62711;SDS011;48772;55.586;37.730;2023-02-10T01:45:19;5.85;;;4.07;;
62711;SDS011;48772;55.586;37.730;2023-02-10T01:47:50;3.25;;;2.55;;
62711;SDS011;48772;55.586;37.730;2023-02-10T01:50:21;3.63;;;2.72;;
62711;SDS011;48772;55.586;37.730;2023-02-10T01:52:51;6.75;;;3.33;;
62711;SDS011;48772;55.586;37.730;2023-02-10T01:55:20;6.80;;;2.78;;
62711;SDS011;48772;55.586;37.730;2023-02-10T01:57:50;3.88;;;2.97;;
62711;SDS011;48772;55.586;37.730;2023-02-10T02:00:20;9.43;;;4.05;;
62711;SDS011;48772;55.586;37.730;2023-02-10T02:02:52;4.70;;;3.00;;
62711;SDS011;48772;55.586;37.730;2023-02-10T02:05:31;8.48;;;5.00;;
62711;SDS011;48772;55.586;37.730;2023-02-10T02:22:35;4.63;;;3.35;;
62711;SDS011;48772;55.586;37.730;2023-02-10T02:28:37;7.78;;;4.18;;
62711;SDS011;48772;55.586;37.730;2023-02-10T02:34:02;6.38;;;3.25;;
62711;SDS011;48772;55.586;37.730;2023-02-10T02:39:47;9.60;;;4.43;;
62711;SDS011;48772;55.586;37.730;2023-02-10T02:44:46;9.85;;;4.97;;
62711;SDS011;48772;55.586;37.730;2023-02-10T02:47:22;11.52;;;5.65;;
62711;SDS011;48772;55.586;37.730;2023-02-10T02:53:33;9.38;;;6.05;;
62711;SDS011;48772;55.586;37.730;2023-02-10T03:02:23;6.88;;;3.67;;
62711;SDS011;48772;55.586;37.730;2023-02-10T03:12:55;13.75;;;5.03;;
62711;SDS011;48772;55.586;37.730;2023-02-10T03:15:41;11.65;;;6.57;;
62711;SDS011;48772;55.586;37.730;2023-02-10T03:18:50;10.00;;;5.28;;
62711;SDS011;48772;55.586;37.730;2023-02-10T03:22:26;9.43;;;5.63;;
62711;SDS011;48772;55.586;37.730;2023-02-10T03:25:47;8.63;;;5.15;;
62711;SDS011;48772;55.586;37.730;2023-02-10T03:30:05;21.48;;;5.28;;
62711;SDS011;48772;55.586;37.730;2023-02-10T03:33:35;8.52;;;4.95;;
62711;SDS011;48772;55.586;37.730;2023-02-10T03:36:06;7.78;;;4.95;;
62711;SDS011;48772;55.586;37.730;2023-02-10T03:38:53;9.10;;;5.28;;
62711;SDS011;48772;55.586;37.730;2023-02-10T03:41:27;13.13;;;6.78;;
62711;SDS011;48772;55.586;37.730;2023-02-10T03:44:08;10.48;;;6.07;;
62711;SDS011;48772;55.586;37.730;2023-02-10T03:47:33;6.47;;;4.18;;
62711;SDS011;48772;55.586;37.730;2023-02-10T03:50:49;13.23;;;6.43;;
62711;SDS011;48772;55.586;37.730;2023-02-10T03:53:36;11.52;;;6.15;;
62711;SDS011;48772;55.586;37.730;2023-02-10T03:56:36;10.18;;;5.40;;
62711;SDS011;48772;55.586;37.730;2023-02-10T03:59:22;6.90;;;4.47;;
62711;SDS011;48772;55.586;37.730;2023-02-10T04:01:49;9.43;;;5.05;;
62711;SDS011;48772;55.586;37.730;2023-02-10T04:04:17;9.45;;;5.07;;
62711;SDS011;48772;55.586;37.730;2023-02-10T04:06:44;11.88;;;5.75;;
62711;SDS011;48772;55.586;37.730;2023-02-10T04:09:11;9.38;;;5.35;;
62711;SDS011;48772;55.586;37.730;2023-02-10T04:11:39;11.30;;;5.55;;
62711;SDS011;48772;55.586;37.730;2023-02-10T04:14:06;7.75;;;5.07;;
62711;SDS011;48772;55.586;37.730;2023-02-10T04:16:33;10.30;;;5.57;;
62711;SDS011;48772;55.586;37.730;2023-02-10T04:20:35;11.55;;;5.03;;
62711;SDS011;48772;55.586;37.730;2023-02-10T04:23:26;10.55;;;6.53;;
62711;SDS011;48772;55.586;37.730;2023-02-10T04:26:47;9.18;;;5.13;;
62711;SDS011;48772;55.586;37.730;2023-02-10T04:29:15;8.57;;;4.72;;
62711;SDS011;48772;55.586;37.730;2023-02-10T04:31:51;8.75;;;5.68;;
62711;SDS011;48772;55.586;37.730;2023-02-10T04:34:21;11.57;;;6.63;;
62711;SDS011;48772;55.586;37.730;2023-02-10T04:36:48;11.85;;;6.43;;
62711;SDS011;48772;55.586;37.730;2023-02-10T04:39:31;10.98;;;6.03;;
62711;SDS011;48772;55.586;37.730;2023-02-10T04:42:29;14.52;;;5.43;;
62711;SDS011;48772;55.586;37.730;2023-02-10T04:45:00;11.50;;;6.75;;
62711;SDS011;48772;55.586;37.730;2023-02-10T04:47:29;12.38;;;5.53;;
62711;SDS011;48772;55.586;37.730;2023-02-10T04:49:56;15.70;;;7.65;;
62711;SDS011;48772;55.586;37.730;2023-02-10T04:52:22;12.65;;;5.97;;
62711;SDS011;48772;55.586;37.730;2023-02-10T04:54:48;12.15;;;6.15;;
62711;SDS011;48772;55.586;37.730;2023-02-10T04:57:14;11.88;;;4.65;;
62711;SDS011;48772;55.586;37.730;2023-02-10T04:59:46;6.97;;;5.38;;
62711;SDS011;48772;55.586;37.730;2023-02-10T05:02:15;14.00;;;6.78;;
62711;SDS011;48772;55.586;37.730;2023-02-10T05:04:41;13.60;;;6.63;;
62711;SDS011;48772;55.586;37.730;2023-02-10T05:07:08;8.68;;;5.88;;
62711;SDS011;48772;55.586;37.730;2023-02-10T05:09:35;8.85;;;5.88;;
62711;SDS011;48772;55.586;37.730;2023-02-10T05:12:01;13.65;;;9.20;;
62711;SDS011;48772;55.586;37.730;2023-02-10T05:14:27;11.20;;;6.47;;
62711;SDS011;48772;55.586;37.730;2023-02-10T05:16:53;9.45;;;5.60;;
62711;SDS011;48772;55.586;37.730;2023-02-10T05:19:19;13.65;;;8.52;;
62711;SDS011;48772;55.586;37.730;2023-02-10T05:21:45;10.65;;;6.63;;
62711;SDS011;48772;55.586;37.730;2023-02-10T05:24:11;10.65;;;6.40;;
62711;SDS011;48772;55.586;37.730;2023-02-10T05:26:37;12.60;;;6.50;;
62711;SDS011;48772;55.586;37.730;2023-02-10T05:29:02;12.10;;;8.07;;
62711;SDS011;48772;55.586;37.730;2023-02-10T05:31:28;8.48;;;5.40;;
62711;SDS011;48772;55.586;37.730;2023-02-10T05:33:54;14.00;;;6.32;;
62711;SDS011;48772;55.586;37.730;2023-02-10T05:36:21;10.32;;;5.63;;
62711;SDS011;48772;55.586;37.730;2023-02-10T05:38:47;14.60;;;8.10;;
62711;SDS011;48772;55.586;37.730;2023-02-10T05:41:31;10.85;;;7.05;;
62711;SDS011;48772;55.586;37.730;2023-02-10T05:43:57;12.90;;;7.15;;
62711;SDS011;48772;55.586;37.730;2023-02-10T05:46:23;14.68;;;8.13;;
62711;SDS011;48772;55.586;37.730;2023-02-10T05:48:49;13.00;;;7.43;;
62711;SDS011;48772;55.586;37.730;2023-02-10T05:51:15;13.98;;;7.03;;
62711;SDS011;48772;55.586;37.730;2023-02-10T05:53:41;9.63;;;6.20;;
62711;SDS011;48772;55.586;37.730;2023-02-10T05:56:07;13.40;;;6.60;;
62711;SDS011;48772;55.586;37.730;2023-02-10T05:58:34;12.25;;;7.50;;
62711;SDS011;48772;55.586;37.730;2023-02-10T06:01:08;14.13;;;7.65;;
62711;SDS011;48772;55.586;37.730;2023-02-10T06:03:37;13.93;;;7.60;;
62711;SDS011;48772;55.586;37.730;2023-02-10T06:06:04;10.32;;;7.00;;
62711;SDS011;48772;55.586;37.730;2023-02-10T06:08:30;8.07;;;5.93;;
62711;SDS011;48772;55.586;37.730;2023-02-10T06:10:56;13.43;;;7.65;;
62711;SDS011;48772;55.586;37.730;2023-02-10T06:13:23;10.70;;;6.72;;
62711;SDS011;48772;55.586;37.730;2023-02-10T06:15:49;11.27;;;6.20;;
62711;SDS011;48772;55.586;37.730;2023-02-10T06:18:16;11.65;;;5.75;;
62711;SDS011;48772;55.586;37.730;2023-02-10T06:20:44;6.35;;;4.03;;
62711;SDS011;48772;55.586;37.730;2023-02-10T06:23:13;11.82;;;7.15;;
62711;SDS011;48772;55.586;37.730;2023-02-10T06:25:39;9.63;;;6.55;;
62711;SDS011;48772;55.586;37.730;2023-02-10T06:28:06;9.90;;;6.15;;
62711;SDS011;48772;55.586;37.730;2023-02-10T06:30:32;11.20;;;7.28;;
62711;SDS011;48772;55.586;37.730;2023-02-10T06:32:59;12.82;;;6.75;;
62711;SDS011;48772;55.586;37.730;2023-02-10T06:35:28;11.90;;;6.47;;
62711;SDS011;48772;55.586;37.730;2023-02-10T06:38:31;10.73;;;5.90;;
62711;SDS011;48772;55.586;37.730;2023-02-10T06:40:58;12.55;;;6.78;;
62711;SDS011;48772;55.586;37.730;2023-02-10T06:43:24;11.65;;;8.05;;
62711;SDS011;48772;55.586;37.730;2023-02-10T06:45:51;10.90;;;7.45;;
62711;SDS011;48772;55.586;37.730;2023-02-10T06:48:18;10.95;;;7.35;;
62711;SDS011;48772;55.586;37.730;2023-02-10T06:50:45;7.70;;;4.40;;
62711;SDS011;48772;55.586;37.730;2023-02-10T06:53:11;8.68;;;5.03;;
62711;SDS011;48772;55.586;37.730;2023-02-10T06:58:12;11.95;;;6.95;;
62711;SDS011;48772;55.586;37.730;2023-02-10T07:00:46;8.15;;;5.43;;
62711;SDS011;48772;55.586;37.730;2023-02-10T07:03:28;10.13;;;5.30;;
62711;SDS011;48772;55.586;37.730;2023-02-10T07:06:05;11.73;;;5.97;;
62711;SDS011;48772;55.586;37.730;2023-02-10T07:08:51;8.55;;;5.72;;
62711;SDS011;48772;55.586;37.730;2023-02-10T07:11:18;7.85;;;6.15;;
62711;SDS011;48772;55.586;37.730;2023-02-10T07:13:44;9.23;;;4.47;;
62711;SDS011;48772;55.586;37.730;2023-02-10T07:16:10;11.40;;;6.35;;
62711;SDS011;48772;55.586;37.730;2023-02-10T07:18:40;11.02;;;7.07;;
62711;SDS011;48772;55.586;37.730;2023-02-10T07:21:09;12.60;;;6.78;;
62711;SDS011;48772;55.586;37.730;2023-02-10T07:24:27;11.32;;;7.35;;
62711;SDS011;48772;55.586;37.730;2023-02-10T07:27:18;12.90;;;7.65;;
62711;SDS011;48772;55.586;37.730;2023-02-10T07:30:08;13.05;;;7.75;;
62711;SDS011;48772;55.586;37.730;2023-02-10T07:32:46;14.38;;;6.28;;
62711;SDS011;48772;55.586;37.730;2023-02-10T07:35:33;9.13;;;6.57;;
62711;SDS011;48772;55.586;37.730;2023-02-10T07:38:01;12.77;;;8.52;;
62711;SDS011;48772;55.586;37.730;2023-02-10T07:40:43;13.55;;;8.50;;
62711;SDS011;48772;55.586;37.730;2023-02-10T07:43:25;13.13;;;7.40;;
62711;SDS011;48772;55.586;37.730;2023-02-10T07:46:05;11.88;;;7.53;;
62711;SDS011;48772;55.586;37.730;2023-02-10T07:48:47;10.65;;;7.60;;
62711;SDS011;48772;55.586;37.730;2023-02-10T07:51:13;11.70;;;7.28;;
62711;SDS011;48772;55.586;37.730;2023-02-10T07:53:39;12.55;;;7.55;;
62711;SDS011;48772;55.586;37.730;2023-02-10T07:56:08;11.00;;;8.00;;
62711;SDS011;48772;55.586;37.730;2023-02-10T07:58:38;8.23;;;5.85;;
62711;SDS011;48772;55.586;37.730;2023-02-10T08:01:07;11.88;;;6.18;;
62711;SDS011;48772;55.586;37.730;2023-02-10T08:03:36;10.25;;;7.07;;
62711;SDS011;48772;55.586;37.730;2023-02-10T08:06:08;13.20;;;6.70;;
62711;SDS011;48772;55.586;37.730;2023-02-10T08:08:36;10.02;;;7.28;;
62711;SDS011;48772;55.586;37.730;2023-02-10T08:11:13;9.57;;;6.25;;
62711;SDS011;48772;55.586;37.730;2023-02-10T08:13:42;11.52;;;6.50;;
62711;SDS011;48772;55.586;37.730;2023-02-10T08:16:24;8.45;;;5.50;;
62711;SDS011;48772;55.586;37.730;2023-02-10T08:19:03;10.20;;;6.15;;
62711;SDS011;48772;55.586;37.730;2023-02-10T08:21:35;10.95;;;6.97;;
62711;SDS011;48772;55.586;37.730;2023-02-10T08:24:08;12.10;;;6.20;;
62711;SDS011;48772;55.586;37.730;2023-02-10T08:31:39;10.82;;;6.35;;
62711;SDS011;48772;55.586;37.730;2023-02-10T08:38:48;12.23;;;5.53;;
62711;SDS011;48772;55.586;37.730;2023-02-10T08:42:10;11.27;;;5.85;;
62711;SDS011;48772;55.586;37.730;2023-02-10T08:48:07;10.52;;;7.43;;
62711;SDS011;48772;55.586;37.730;2023-02-10T08:50:36;8.95;;;5.72;;
62711;SDS011;48772;55.586;37.730;2023-02-10T08:53:18;7.75;;;5.22;;
62711;SDS011;48772;55.586;37.730;2023-02-10T08:55:44;9.23;;;5.35;;
62711;SDS011;48772;55.586;37.730;2023-02-10T08:58:19;11.48;;;5.82;;
62711;SDS011;48772;55.586;37.730;2023-02-10T09:00:46;8.75;;;5.97;;
62711;SDS011;48772;55.586;37.730;2023-02-10T09:03:11;8.68;;;5.53;;
62711;SDS011;48772;55.586;37.730;2023-02-10T09:05:38;7.45;;;5.22;;
62711;SDS011;48772;55.586;37.730;2023-02-10T09:08:08;9.52;;;6.22;;
62711;SDS011;48772;55.586;37.730;2023-02-10T09:10:34;8.63;;;5.18;;
62711;SDS011;48772;55.586;37.730;2023-02-10T09:13:00;8.32;;;5.40;;
62711;SDS011;48772;55.586;37.730;2023-02-10T09:15:27;8.07;;;5.38;;
62711;SDS011;48772;55.586;37.730;2023-02-10T09:17:54;8.82;;;5.95;;
62711;SDS011;48772;55.586;37.730;2023-02-10T09:20:21;6.18;;;4.30;;
62711;SDS011;48772;55.586;37.730;2023-02-10T09:22:47;8.10;;;5.15;;
62711;SDS011;48772;55.586;37.730;2023-02-10T09:25:15;6.63;;;4.53;;
62711;SDS011;48772;55.586;37.730;2023-02-10T09:27:41;7.90;;;5.78;;
62711;SDS011;48772;55.586;37.730;2023-02-10T09:30:07;11.90;;;6.95;;
62711;SDS011;48772;55.586;37.730;2023-02-10T09:32:34;8.13;;;5.70;;
62711;SDS011;48772;55.586;37.730;2023-02-10T09:35:01;9.57;;;5.38;;
62711;SDS011;48772;55.586;37.730;2023-02-10T09:37:53;7.70;;;6.15;;
62711;SDS011;48772;55.586;37.730;2023-02-10T09:40:27;9.20;;;5.38;;
62711;SDS011;48772;55.586;37.730;2023-02-10T09:45:49;8.05;;;4.70;;
62711;SDS011;48772;55.586;37.730;2023-02-10T09:48:54;8.77;;;4.35;;
62711;SDS011;48772;55.586;37.730;2023-02-10T09:51:56;9.77;;;5.72;;
62711;SDS011;48772;55.586;37.730;2023-02-10T09:54:46;8.38;;;5.63;;
62711;SDS011;48772;55.586;37.730;2023-02-10T09:57:19;9.05;;;4.72;;
62711;SDS011;48772;55.586;37.730;2023-02-10T10:00:02;9.25;;;4.78;;
62711;SDS011;48772;55.586;37.730;2023-02-10T10:02:53;6.93;;;4.85;;
62711;SDS011;48772;55.586;37.730;2023-02-10T10:05:54;8.05;;;5.00;;
62711;SDS011;48772;55.586;37.730;2023-02-10T10:12:02;5.90;;;4.05;;
62711;SDS011;48772;55.586;37.730;2023-02-10T10:14:48;9.48;;;5.40;;
62711;SDS011;48772;55.586;37.730;2023-02-10T10:21:05;9.57;;;5.20;;
62711;SDS011;48772;55.586;37.730;2023-02-10T10:35:49;7.55;;;4.50;;
62711;SDS011;48772;55.586;37.730;2023-02-10T10:39:14;10.40;;;3.30;;
62711;SDS011;48772;55.586;37.730;2023-02-10T10:57:32;6.18;;;3.85;;
62711;SDS011;48772;55.586;37.730;2023-02-10T11:00:13;9.52;;;5.03;;
62711;SDS011;48772;55.586;37.730;2023-02-10T11:03:01;6.30;;;3.90;;
62711;SDS011;48772;55.586;37.730;2023-02-10T11:05:37;8.20;;;3.97;;
62711;SDS011;48772;55.586;37.730;2023-02-10T11:08:22;9.13;;;4.82;;
62711;SDS011;48772;55.586;37.730;2023-02-10T11:11:40;6.28;;;3.95;;
62711;SDS011;48772;55.586;37.730;2023-02-10T11:14:19;5.68;;;3.60;;
62711;SDS011;48772;55.586;37.730;2023-02-10T11:20:22;8.65;;;4.28;;
62711;SDS011;48772;55.586;37.730;2023-02-10T11:23:03;7.88;;;5.45;;
62711;SDS011;48772;55.586;37.730;2023-02-10T11:26:00;11.43;;;5.40;;
62711;SDS011;48772;55.586;37.730;2023-02-10T11:28:42;10.43;;;4.70;;
62711;SDS011;48772;55.586;37.730;2023-02-10T11:34:06;7.78;;;4.80;;
62711;SDS011;48772;55.586;37.730;2023-02-10T11:36:54;6.60;;;4.18;;
62711;SDS011;48772;55.586;37.730;2023-02-10T11:39:35;9.13;;;4.88;;
62711;SDS011;48772;55.586;37.730;2023-02-10T11:42:11;7.30;;;4.30;;
62711;SDS011;48772;55.586;37.730;2023-02-10T11:45:28;9.65;;;5.45;;
62711;SDS011;48772;55.586;37.730;2023-02-10T11:48:36;10.52;;;5.57;;
62711;SDS011;48772;55.586;37.730;2023-02-10T11:51:20;8.05;;;5.18;;
62711;SDS011;48772;55.586;37.730;2023-02-10T11:54:02;8.80;;;3.90;;
62711;SDS011;48772;55.586;37.730;2023-02-10T11:57:15;9.98;;;4.25;;
62711;SDS011;48772;55.586;37.730;2023-02-10T12:00:30;9.35;;;4.60;;
62711;SDS011;48772;55.586;37.730;2023-02-10T12:12:27;18.58;;;6.80;;
62711;SDS011;48772;55.586;37.730;2023-02-10T12:23:50;13.55;;;5.15;;
62711;SDS011;48772;55.586;37.730;2023-02-10T12:29:41;7.85;;;4.75;;
62711;SDS011;48772;55.586;37.730;2023-02-10T12:38:42;6.57;;;3.72;;
62711;SDS011;48772;55.586;37.730;2023-02-10T12:53:25;6.90;;;3.97;;
62711;SDS011;48772;55.586;37.730;2023-02-10T12:59:00;7.90;;;4.63;;
62711;SDS011;48772;55.586;37.730;2023-02-10T13:01:46;8.75;;;4.95;;
62711;SDS011;48772;55.586;37.730;2023-02-10T13:04:18;11.52;;;5.68;;
62711;SDS011;48772;55.586;37.730;2023-02-10T13:12:52;7.50;;;4.82;;
62711;SDS011;48772;55.586;37.730;2023-02-10T13:15:27;10.88;;;5.78;;
62711;SDS011;48772;55.586;37.730;2023-02-10T13:18:26;10.80;;;5.65;;
62711;SDS011;48772;55.586;37.730;2023-02-10T13:21:04;9.43;;;5.60;;
62711;SDS011;48772;55.586;37.730;2023-02-10T13:28:48;13.25;;;5.63;;
62711;SDS011;48772;55.586;37.730;2023-02-10T13:31:29;9.00;;;5.28;;
62711;SDS011;48772;55.586;37.730;2023-02-10T13:34:28;11.73;;;4.80;;
62711;SDS011;48772;55.586;37.730;2023-02-10T13:37:00;13.10;;;6.03;;
62711;SDS011;48772;55.586;37.730;2023-02-10T13:39:35;7.50;;;4.90;;
62711;SDS011;48772;55.586;37.730;2023-02-10T13:45:03;11.20;;;5.78;;
62711;SDS011;48772;55.586;37.730;2023-02-10T13:47:39;11.18;;;5.38;;
62711;SDS011;48772;55.586;37.730;2023-02-10T14:00:43;11.02;;;4.82;;
62711;SDS011;48772;55.586;37.730;2023-02-10T14:05:50;13.52;;;4.78;;
62711;SDS011;48772;55.586;37.730;2023-02-10T14:08:30;11.48;;;6.00;;
62711;SDS011;48772;55.586;37.730;2023-02-10T14:11:04;10.93;;;6.15;;
62711;SDS011;48772;55.586;37.730;2023-02-10T14:19:21;9.07;;;5.18;;
62711;SDS011;48772;55.586;37.730;2023-02-10T14:21:54;10.70;;;7.05;;
62711;SDS011;48772;55.586;37.730;2023-02-10T14:24:25;10.52;;;5.43;;
62711;SDS011;48772;55.586;37.730;2023-02-10T14:27:01;10.93;;;5.38;;
62711;SDS011;48772;55.586;37.730;2023-02-10T14:29:31;8.57;;;5.40;;
62711;SDS011;48772;55.586;37.730;2023-02-10T14:32:00;9.60;;;4.97;;
62711;SDS011;48772;55.586;37.730;2023-02-10T14:34:30;10.32;;;6.57;;
62711;SDS011;48772;55.586;37.730;2023-02-10T14:37:01;8.85;;;5.47;;
62711;SDS011;48772;55.586;37.730;2023-02-10T14:40:03;9.60;;;5.68;;
62711;SDS011;48772;55.586;37.730;2023-02-10T14:42:31;9.27;;;4.85;;
62711;SDS011;48772;55.586;37.730;2023-02-10T14:45:02;10.20;;;6.57;;
62711;SDS011;48772;55.586;37.730;2023-02-10T14:47:34;11.95;;;6.07;;
62711;SDS011;48772;55.586;37.730;2023-02-10T14:52:54;7.38;;;4.57;;
62711;SDS011;48772;55.586;37.730;2023-02-10T14:55:23;13.35;;;6.82;;
62711;SDS011;48772;55.586;37.730;2023-02-10T14:58:13;8.23;;;6.10;;
62711;SDS011;48772;55.586;37.730;2023-02-10T15:00:52;14.30;;;5.35;;
62711;SDS011;48772;55.586;37.730;2023-02-10T15:03:44;11.82;;;5.97;;
62711;SDS011;48772;55.586;37.730;2023-02-10T15:06:18;8.88;;;5.20;;
62711;SDS011;48772;55.586;37.730;2023-02-10T15:08:58;9.18;;;5.22;;
62711;SDS011;48772;55.586;37.730;2023-02-10T15:11:32;12.00;;;5.70;;
62711;SDS011;48772;55.586;37.730;2023-02-10T15:14:27;9.73;;;6.20;;
62711;SDS011;48772;55.586;37.730;2023-02-10T15:19:28;11.10;;;6.05;;
62711;SDS011;48772;55.586;37.730;2023-02-10T15:21:54;9.85;;;5.82;;
62711;SDS011;48772;55.586;37.730;2023-02-10T15:24:31;12.77;;;5.82;;
62711;SDS011;48772;55.586;37.730;2023-02-10T15:27:14;8.98;;;5.18;;
62711;SDS011;48772;55.586;37.730;2023-02-10T15:29:41;10.20;;;5.85;;
62711;SDS011;48772;55.586;37.730;2023-02-10T15:32:15;15.77;;;5.68;;
62711;SDS011;48772;55.586;37.730;2023-02-10T15:34:43;8.02;;;4.43;;
62711;SDS011;48772;55.586;37.730;2023-02-10T15:37:16;12.25;;;5.80;;
62711;SDS011;48772;55.586;37.730;2023-02-10T15:39:53;8.82;;;5.32;;
62711;SDS011;48772;55.586;37.730;2023-02-10T15:42:38;15.30;;;6.75;;
62711;SDS011;48772;55.586;37.730;2023-02-10T16:19:27;11.73;;;5.80;;
62711;SDS011;48772;55.586;37.730;2023-02-10T16:22:08;12.57;;;5.78;;
62711;SDS011;48772;55.586;37.730;2023-02-10T16:24:40;12.90;;;5.57;;
62711;SDS011;48772;55.586;37.730;2023-02-10T16:27:37;14.52;;;5.22;;
62711;SDS011;48772;55.586;37.730;2023-02-10T16:30:03;12.60;;;6.95;;
62711;SDS011;48772;55.586;37.730;2023-02-10T16:32:40;9.07;;;5.45;;
62711;SDS011;48772;55.586;37.730;2023-02-10T16:35:14;9.38;;;5.32;;
62711;SDS011;48772;55.586;37.730;2023-02-10T16:37:48;10.25;;;6.22;;
62711;SDS011;48772;55.586;37.730;2023-02-10T16:40:22;11.52;;;6.22;;
62711;SDS011;48772;55.586;37.730;2023-02-10T16:43:05;10.43;;;6.68;;
62711;SDS011;48772;55.586;37.730;2023-02-10T16:45:40;8.82;;;5.30;;
62711;SDS011;48772;55.586;37.730;2023-02-10T16:48:08;11.55;;;5.97;;
62711;SDS011;48772;55.586;37.730;2023-02-10T16:50:41;11.95;;;6.45;;
62711;SDS011;48772;55.586;37.730;2023-02-10T16:53:13;9.35;;;5.45;;
62711;SDS011;48772;55.586;37.730;2023-02-10T16:55:41;9.93;;;5.78;;
62711;SDS011;48772;55.586;37.730;2023-02-10T16:58:41;11.80;;;5.90;;
62711;SDS011;48772;55.586;37.730;2023-02-10T17:01:08;13.40;;;6.85;;
62711;SDS011;48772;55.586;37.730;2023-02-10T17:03:44;15.43;;;7.53;;
62711;SDS011;48772;55.586;37.730;2023-02-10T17:06:33;18.77;;;7.43;;
62711;SDS011;48772;55.586;37.730;2023-02-10T17:09:35;19.20;;;9.70;;
62711;SDS011;48772;55.586;37.730;2023-02-10T17:12:06;11.57;;;7.82;;
62711;SDS011;48772;55.586;37.730;2023-02-10T17:14:32;18.75;;;8.48;;
62711;SDS011;48772;55.586;37.730;2023-02-10T17:16:59;16.50;;;7.40;;
62711;SDS011;48772;55.586;37.730;2023-02-10T17:19:28;14.07;;;8.40;;
62711;SDS011;48772;55.586;37.730;2023-02-10T17:21:59;13.10;;;7.72;;
62711;SDS011;48772;55.586;37.730;2023-02-10T17:24:31;17.02;;;8.60;;
62711;SDS011;48772;55.586;37.730;2023-02-10T17:26:58;14.35;;;7.43;;
62711;SDS011;48772;55.586;37.730;2023-02-10T17:29:26;19.13;;;9.75;;
62711;SDS011;48772;55.586;37.730;2023-02-10T17:31:57;12.43;;;7.00;;
62711;SDS011;48772;55.586;37.730;2023-02-10T17:34:30;22.23;;;10.65;;
62711;SDS011;48772;55.586;37.730;2023-02-10T17:37:02;15.38;;;8.43;;
62711;SDS011;48772;55.586;37.730;2023-02-10T17:39:35;11.20;;;6.53;;
62711;SDS011;48772;55.586;37.730;2023-02-10T17:42:06;12.50;;;7.53;;
62711;SDS011;48772;55.586;37.730;2023-02-10T17:44:55;12.00;;;7.45;;
62711;SDS011;48772;55.586;37.730;2023-02-10T17:47:24;18.20;;;9.00;;
62711;SDS011;48772;55.586;37.730;2023-02-10T17:49:54;18.90;;;10.07;;
62711;SDS011;48772;55.586;37.730;2023-02-10T17:52:21;13.65;;;7.35;;
62711;SDS011;48772;55.586;37.730;2023-02-10T17:54:48;16.05;;;8.98;;
62711;SDS011;48772;55.586;37.730;2023-02-10T17:57:17;15.02;;;8.45;;
62711;SDS011;48772;55.586;37.730;2023-02-10T17:59:48;19.55;;;9.35;;
62711;SDS011;48772;55.586;37.730;2023-02-10T18:02:15;20.05;;;7.32;;
62711;SDS011;48772;55.586;37.730;2023-02-10T18:04:45;19.85;;;8.80;;
62711;SDS011;48772;55.586;37.730;2023-02-10T18:07:19;19.45;;;9.82;;
62711;SDS011;48772;55.586;37.730;2023-02-10T18:09:51;20.25;;;9.23;;
62711;SDS011;48772;55.586;37.730;2023-02-10T18:12:19;12.80;;;7.78;;
62711;SDS011;48772;55.586;37.730;2023-02-10T18:14:46;16.60;;;7.85;;
62711;SDS011;48772;55.586;37.730;2023-02-10T18:17:15;19.33;;;9.32;;
62711;SDS011;48772;55.586;37.730;2023-02-10T18:19:43;17.08;;;8.13;;
62711;SDS011;48772;55.586;37.730;2023-02-10T18:22:20;17.55;;;9.13;;
62711;SDS011;48772;55.586;37.730;2023-02-10T18:24:52;19.63;;;9.73;;
62711;SDS011;48772;55.586;37.730;2023-02-10T18:27:24;21.10;;;7.25;;
62711;SDS011;48772;55.586;37.730;2023-02-10T18:29:51;13.95;;;7.60;;
62711;SDS011;48772;55.586;37.730;2023-02-10T18:32:21;17.40;;;9.30;;
62711;SDS011;48772;55.586;37.730;2023-02-10T18:34:52;21.45;;;11.50;;
62711;SDS011;48772;55.586;37.730;2023-02-10T18:37:39;19.45;;;9.43;;
62711;SDS011;48772;55.586;37.730;2023-02-10T18:40:07;17.45;;;8.80;;
62711;SDS011;48772;55.586;37.730;2023-02-10T18:42:39;18.23;;;9.13;;
62711;SDS011;48772;55.586;37.730;2023-02-10T18:45:21;21.38;;;9.50;;
62711;SDS011;48772;55.586;37.730;2023-02-10T18:48:07;17.48;;;8.77;;
62711;SDS011;48772;55.586;37.730;2023-02-10T18:52:13;15.98;;;7.65;;
62711;SDS011;48772;55.586;37.730;2023-02-10T18:55:13;17.45;;;9.40;;
62711;SDS011;48772;55.586;37.730;2023-02-10T18:57:48;20.63;;;8.80;;
62711;SDS011;48772;55.586;37.730;2023-02-10T19:00:14;17.63;;;7.72;;
62711;SDS011;48772;55.586;37.730;2023-02-10T19:02:41;17.70;;;7.68;;